Accueil
METAR-TAF:

METAR-TAF

Aéroports :

Bagdad, Irak

Aéroport international de Bagdad

latitude: 33-15-45N, longitude: 44-14-04E, altitude: 35 m

Observation

Le bulletin a été fait il y a 38 minutes, à 09:00 UTC
Vent 3 kt de direction variable
Température 19°C
Humidité 34%
Pression 1016 hPa
Visibilité: 4000 m
poussière généralisée

METAR: ORBI 240900Z VRB03KT 4000 DU NSC 19/03 Q1016 NOSIG

Heure: 12:38 (09:38 UTC)

Prévision

Le bulletin a été fait il y a 5 heures et 38 minutes, à 04:00 UTC
Prévision valable du 24 à 06 UTC au 25 à 06 UTC
Vent 3 kt de direction variable
Visibilité: 7000 m
Quelques nuages à une hauteur de 3500 ft

TAF: ORBI 240400Z 2406/2506 VRB03KT 7000 FEW035

Observations et prévisions météorologiques de plus de 4000 aéroports (messages METAR et TAF).

Les stations disponibles sont représentées par des disques jaunes et rouges sur la carte.

Passer la souris dessus pour voir le nom de la station.

Cliquer dessus pour voir les observations et prévisions météorologiques.

Pour changer de carte: cliquez sur les boutons verts avec une croix noire pour zoomer, sur le bouton vert avec un tiret pour effectuer un zoom arrière, ou sur les flèches vertes pour les cartes adjacentes.


METAR-TAF: